Time;durP1;ratioP1;P1;durP2;ratioP2;P2;SDS_P1;SDS_P2;PMS_P1;PMS_P2;Temp;Humidity;BMP_temperature;BMP_pressure;BME280_temperature;BME280_humidity;BME280_pressure;Samples;Min_cycle;Max_cycle;Signal;HPM_P1;HPM_P2
2022/07/19 00:02:25;;;;;;;30.40;20.83;;;24.30;99.90;;;;;;5114923;28;20042;-59
2022/07/19 00:04:50;;;;;;;25.27;18.88;;;24.10;99.90;;;;;;5115033;28;20499;-59
2022/07/19 00:07:16;;;;;;;26.98;21.00;;;24.10;99.90;;;;;;5114973;28;20384;-59
2022/07/19 00:09:42;;;;;;;27.20;20.45;;;24.10;99.90;;;;;;5115066;28;20073;-59
2022/07/19 00:12:07;;;;;;;26.27;20.55;;;24.00;99.90;;;;;;5114808;28;20028;-59
2022/07/19 00:14:33;;;;;;;22.23;18.15;;;24.00;99.90;;;;;;5114543;28;20019;-59
2022/07/19 00:16:59;;;;;;;25.45;18.67;;;24.00;99.90;;;;;;5114710;28;20032;-59
2022/07/19 00:19:24;;;;;;;24.58;18.52;;;24.10;99.90;;;;;;5114725;28;20028;-59
2022/07/19 00:21:50;;;;;;;21.30;17.67;;;24.10;99.90;;;;;;5114530;28;20038;-59
2022/07/19 00:24:16;;;;;;;25.52;19.63;;;24.10;99.90;;;;;;5114579;28;20020;-59
2022/07/19 00:26:41;;;;;;;22.63;17.90;;;24.10;99.90;;;;;;5114667;28;20586;-59
2022/07/19 00:29:07;;;;;;;19.98;17.20;;;24.00;99.90;;;;;;5114524;28;20122;-59
2022/07/19 00:31:33;;;;;;;26.50;18.33;;;24.00;99.90;;;;;;5114358;28;20104;-59
2022/07/19 00:33:58;;;;;;;20.83;18.02;;;24.00;99.90;;;;;;5114334;28;20046;-59
2022/07/19 00:36:24;;;;;;;25.73;18.55;;;24.00;99.90;;;;;;5113312;28;20039;-59
2022/07/19 00:38:50;;;;;;;28.70;19.27;;;24.00;99.90;;;;;;5114532;28;20438;-59
2022/07/19 00:41:15;;;;;;;19.80;16.95;;;24.00;99.90;;;;;;5114145;28;20044;-59
2022/07/19 00:43:43;;;;;;;22.95;18.52;;;24.00;99.90;;;;;;5113916;28;20027;-59
2022/07/19 00:46:16;;;;;;;24.23;17.58;;;23.90;99.90;;;;;;5114112;28;20028;-59
2022/07/19 00:48:42;;;;;;;26.15;17.58;;;23.90;99.90;;;;;;5114193;28;20015;-59
2022/07/19 00:51:13;;;;;;;23.55;17.90;;;24.00;99.90;;;;;;5114176;28;20373;-59
2022/07/19 00:53:40;;;;;;;22.60;18.38;;;23.90;99.90;;;;;;5114153;28;20057;-59
2022/07/19 00:56:07;;;;;;;24.15;18.70;;;23.90;99.90;;;;;;5114104;28;20486;-59
2022/07/19 00:58:34;;;;;;;22.83;18.25;;;24.00;99.90;;;;;;5113489;28;20040;-59
2022/07/19 01:01:01;;;;;;;22.92;17.70;;;23.90;99.90;;;;;;5113797;28;20110;-59
2022/07/19 01:03:27;;;;;;;25.25;18.60;;;23.90;99.90;;;;;;5113929;28;20058;-59
2022/07/19 01:05:53;;;;;;;24.33;18.90;;;23.80;99.90;;;;;;5113859;28;20437;-59
2022/07/19 01:08:18;;;;;;;21.58;17.60;;;23.80;99.90;;;;;;5113679;28;20030;-59
2022/07/19 01:10:44;;;;;;;24.80;17.80;;;23.80;99.90;;;;;;5113698;28;20034;-59
2022/07/19 01:13:13;;;;;;;27.23;18.80;;;23.80;99.90;;;;;;5113786;28;20062;-59
2022/07/19 01:15:40;;;;;;;27.10;18.00;;;23.80;99.90;;;;;;5113547;28;20103;-59
2022/07/19 01:18:06;;;;;;;24.23;18.73;;;23.80;99.90;;;;;;5113504;28;20016;-59
2022/07/19 01:20:32;;;;;;;23.60;17.75;;;23.90;99.90;;;;;;5113458;28;20042;-59
2022/07/19 01:22:59;;;;;;;27.83;17.85;;;24.00;99.90;;;;;;5113335;28;20028;-59
2022/07/19 01:25:30;;;;;;;19.33;16.55;;;24.00;99.90;;;;;;5113105;28;20020;-59
2022/07/19 01:27:56;;;;;;;23.40;17.23;;;24.10;99.90;;;;;;5113772;28;20034;-59
2022/07/19 01:30:24;;;;;;;22.23;16.45;;;23.90;99.90;;;;;;5113329;28;20020;-59
2022/07/19 01:32:51;;;;;;;22.75;16.33;;;23.90;99.90;;;;;;5113671;28;20085;-59
2022/07/19 01:35:18;;;;;;;22.98;15.68;;;23.90;99.90;;;;;;5112818;28;20054;-59
2022/07/19 01:37:44;;;;;;;27.98;16.33;;;23.80;99.90;;;;;;5113016;28;20024;-59
2022/07/19 01:40:12;;;;;;;22.90;16.58;;;23.80;99.90;;;;;;5112737;28;20024;-59
2022/07/19 01:42:39;;;;;;;23.92;16.25;;;23.70;99.90;;;;;;5113056;28;20097;-59
2022/07/19 01:45:06;;;;;;;21.67;16.92;;;23.70;99.90;;;;;;5113340;28;20023;-59
2022/07/19 01:47:32;;;;;;;23.20;16.85;;;23.60;99.90;;;;;;5112762;28;20481;-59
2022/07/19 01:49:59;;;;;;;25.75;16.20;;;23.70;99.90;;;;;;5112937;28;20070;-59
2022/07/19 01:52:24;;;;;;;27.40;17.27;;;23.50;99.90;;;;;;5113116;28;20055;-59
2022/07/19 01:54:50;;;;;;;20.48;14.85;;;23.50;99.90;;;;;;5112409;28;20043;-59
2022/07/19 01:57:16;;;;;;;28.15;15.82;;;23.60;99.90;;;;;;5113011;28;20051;-59
2022/07/19 01:59:41;;;;;;;23.23;16.88;;;23.50;99.90;;;;;;5094900;28;20377;-59
2022/07/19 02:02:07;;;;;;;24.20;16.77;;;23.40;99.90;;;;;;5112590;28;20035;-59
2022/07/19 02:04:33;;;;;;;24.33;16.38;;;23.60;99.90;;;;;;5112630;28;20028;-59
2022/07/19 02:06:59;;;;;;;24.60;15.43;;;23.60;99.90;;;;;;5112837;28;20020;-59
2022/07/19 02:09:25;;;;;;;22.20;14.65;;;23.50;99.90;;;;;;5112607;28;20061;-59
2022/07/19 02:11:51;;;;;;;25.98;15.93;;;23.40;99.90;;;;;;5112393;28;20031;-59
2022/07/19 02:14:17;;;;;;;26.75;16.67;;;23.30;99.90;;;;;;5112650;28;20024;-59
2022/07/19 02:16:43;;;;;;;20.77;15.88;;;23.40;99.90;;;;;;5113080;28;20028;-59
2022/07/19 02:19:09;;;;;;;27.20;15.07;;;23.50;99.90;;;;;;5112651;28;20104;-58
2022/07/19 02:21:35;;;;;;;27.45;14.43;;;23.50;99.90;;;;;;5112298;28;20491;-59
2022/07/19 02:24:02;;;;;;;23.55;15.10;;;23.60;99.90;;;;;;5112212;28;20023;-59
2022/07/19 02:26:28;;;;;;;23.90;13.75;;;23.50;99.90;;;;;;5112484;28;20031;-59
2022/07/19 02:28:54;;;;;;;28.70;15.13;;;23.60;99.90;;;;;;5112901;28;20024;-59
2022/07/19 02:31:20;;;;;;;19.73;14.00;;;23.50;99.90;;;;;;5112454;28;20028;-59
2022/07/19 02:33:46;;;;;;;23.20;13.40;;;23.30;99.90;;;;;;5112401;28;21044;-59
2022/07/19 02:36:11;;;;;;;21.23;13.52;;;23.50;99.90;;;;;;5112188;28;20048;-59
2022/07/19 02:38:38;;;;;;;20.65;12.73;;;23.40;99.90;;;;;;5112000;28;20022;-59
2022/07/19 02:41:04;;;;;;;22.30;14.20;;;23.40;99.90;;;;;;5112242;28;20127;-59
2022/07/19 02:43:30;;;;;;;21.75;14.00;;;23.40;99.90;;;;;;5112674;28;20111;-59
2022/07/19 02:45:55;;;;;;;23.20;12.90;;;23.40;99.90;;;;;;5112324;28;20451;-58
2022/07/19 02:48:21;;;;;;;21.83;13.43;;;23.40;99.90;;;;;;5112487;28;20024;-59
2022/07/19 02:50:47;;;;;;;23.17;13.30;;;23.50;99.90;;;;;;5112072;28;20032;-59
2022/07/19 02:53:13;;;;;;;20.85;12.32;;;23.40;99.90;;;;;;5111993;28;20384;-58
2022/07/19 02:55:38;;;;;;;25.50;13.00;;;23.30;99.90;;;;;;5112288;28;20031;-59
2022/07/19 02:58:04;;;;;;;20.38;12.18;;;23.30;99.90;;;;;;5112525;28;20032;-59
2022/07/19 03:00:30;;;;;;;22.08;12.88;;;23.30;99.90;;;;;;5113866;28;20042;-59
2022/07/19 03:03:43;;;;;;;20.95;12.45;;;23.30;99.90;;;;;;5116219;28;20512;-59
2022/07/19 03:05:44;;;;;;;18.00;11.63;;;23.30;99.90;;;;;;5115993;28;20547;-59
2022/07/19 03:08:10;;;;;;;19.95;13.05;;;23.40;99.90;;;;;;5115672;28;20070;-59
2022/07/19 03:10:35;;;;;;;25.85;14.93;;;23.20;99.90;;;;;;5116123;28;20022;-59
2022/07/19 03:13:01;;;;;;;28.48;17.67;;;23.30;99.90;;;;;;5116072;28;20028;-59
2022/07/19 03:15:27;;;;;;;29.63;16.48;;;23.20;99.90;;;;;;5115970;28;20016;-59
2022/07/19 03:17:52;;;;;;;28.90;18.20;;;23.20;99.90;;;;;;5115922;28;20032;-59
2022/07/19 03:20:18;;;;;;;28.35;18.05;;;23.20;99.90;;;;;;5115805;28;20100;-59
2022/07/19 03:22:44;;;;;;;27.08;15.82;;;23.10;99.90;;;;;;5115670;28;20035;-59
2022/07/19 03:25:10;;;;;;;25.75;16.33;;;23.20;99.90;;;;;;5097348;28;20024;-59
2022/07/19 03:27:35;;;;;;;24.60;17.95;;;23.20;99.90;;;;;;5115614;28;20047;-59
2022/07/19 03:30:01;;;;;;;29.23;18.00;;;23.20;99.90;;;;;;5116040;28;20019;-59
2022/07/19 03:32:27;;;;;;;35.90;20.33;;;23.30;99.90;;;;;;5115493;28;20106;-59
2022/07/19 03:34:53;;;;;;;32.75;21.83;;;23.20;99.90;;;;;;5115370;28;20028;-59
2022/07/19 03:37:18;;;;;;;35.20;22.85;;;23.30;99.90;;;;;;5114770;28;20135;-59
2022/07/19 03:39:44;;;;;;;35.13;23.80;;;23.20;99.90;;;;;;5115790;28;20114;-59
2022/07/19 03:42:10;;;;;;;38.08;27.45;;;23.20;99.90;;;;;;5115210;28;20110;-59
2022/07/19 03:44:35;;;;;;;42.47;31.60;;;23.20;99.90;;;;;;5115256;28;20024;-59
2022/07/19 03:47:01;;;;;;;43.22;32.97;;;23.10;99.90;;;;;;5115467;28;20027;-59
2022/07/19 03:49:27;;;;;;;43.78;32.85;;;23.10;99.90;;;;;;5114940;28;20026;-59
2022/07/19 03:51:53;;;;;;;46.95;34.40;;;23.10;99.90;;;;;;5115448;28;20438;-59
2022/07/19 03:54:18;;;;;;;44.63;32.45;;;23.10;99.90;;;;;;5114901;28;20023;-59
2022/07/19 03:56:44;;;;;;;36.95;28.48;;;23.10;99.90;;;;;;5115220;28;20065;-59
2022/07/19 03:59:10;;;;;;;36.70;26.67;;;23.00;99.90;;;;;;5115007;28;20068;-59
2022/07/19 04:01:37;;;;;;;31.85;24.65;;;22.90;99.90;;;;;;5114656;28;20061;-59
2022/07/19 04:04:04;;;;;;;32.97;23.55;;;23.10;99.90;;;;;;5115208;28;20464;-59
2022/07/19 04:06:30;;;;;;;31.65;23.42;;;23.10;99.90;;;;;;5114514;28;20472;-58
2022/07/19 04:08:56;;;;;;;33.10;23.42;;;23.10;99.90;;;;;;5114768;28;20051;-58
2022/07/19 04:11:21;;;;;;;35.17;23.58;;;22.90;99.90;;;;;;5113279;28;20093;-59
2022/07/19 04:13:47;;;;;;;25.50;18.90;;;22.90;99.90;;;;;;5114516;28;20027;-59
2022/07/19 04:16:13;;;;;;;23.50;15.00;;;22.90;99.90;;;;;;5115018;28;20102;-59
2022/07/19 04:18:39;;;;;;;24.52;16.98;;;23.00;99.90;;;;;;5114531;28;20028;-59
2022/07/19 04:21:05;;;;;;;20.90;14.02;;;22.90;99.90;;;;;;5114226;28;20040;-59
2022/07/19 04:23:31;;;;;;;18.27;13.07;;;22.90;99.90;;;;;;5114721;28;20047;-59
2022/07/19 04:25:57;;;;;;;19.98;12.90;;;23.00;99.90;;;;;;5114529;28;20421;-59
2022/07/19 04:28:23;;;;;;;20.27;13.75;;;23.00;99.90;;;;;;5114865;28;20020;-59
2022/07/19 04:30:48;;;;;;;24.95;13.70;;;22.90;99.90;;;;;;5114119;28;20020;-59
2022/07/19 04:33:15;;;;;;;23.20;12.75;;;22.80;99.90;;;;;;5096049;28;20100;-59
2022/07/19 04:35:41;;;;;;;18.25;11.82;;;22.80;99.90;;;;;;5114158;28;20036;-59
2022/07/19 04:38:07;;;;;;;23.13;11.77;;;22.90;99.90;;;;;;5114117;28;20369;-59
2022/07/19 04:40:32;;;;;;;23.80;11.52;;;23.00;99.90;;;;;;5114136;28;20127;-59
2022/07/19 04:42:58;;;;;;;22.60;11.95;;;23.00;99.90;;;;;;5114046;28;20036;-59
2022/07/19 04:45:24;;;;;;;20.08;11.05;;;22.90;99.90;;;;;;5114364;28;20044;-59
2022/07/19 04:47:49;;;;;;;18.45;11.35;;;22.90;99.90;;;;;;5114202;28;20470;-59
2022/07/19 04:50:15;;;;;;;20.40;10.75;;;22.90;99.90;;;;;;5113728;28;20023;-59
2022/07/19 04:52:41;;;;;;;21.25;11.90;;;22.80;99.90;;;;;;5114092;28;20480;-59
2022/07/19 04:55:07;;;;;;;18.02;11.70;;;22.80;99.90;;;;;;5114235;28;20020;-59
2022/07/19 04:57:33;;;;;;;19.45;12.35;;;22.90;99.90;;;;;;5113830;28;20028;-59
2022/07/19 04:59:59;;;;;;;20.23;13.27;;;22.90;99.90;;;;;;5095356;28;20034;-59
2022/07/19 05:02:24;;;;;;;21.65;13.75;;;22.70;99.90;;;;;;5113998;28;20054;-58
2022/07/19 05:04:51;;;;;;;20.35;13.55;;;22.70;99.90;;;;;;5113293;28;20016;-59
2022/07/19 05:07:17;;;;;;;21.25;13.25;;;22.70;99.90;;;;;;5113724;28;20059;-58
2022/07/19 05:09:43;;;;;;;22.52;14.25;;;22.90;99.90;;;;;;5113624;28;20066;-59
2022/07/19 05:12:10;;;;;;;26.73;15.38;;;22.80;99.90;;;;;;5095523;28;20012;-59
2022/07/19 05:14:36;;;;;;;22.83;14.88;;;22.70;99.90;;;;;;5113452;28;20028;-70
2022/07/19 05:17:02;;;;;;;25.08;14.07;;;23.30;99.90;;;;;;5113503;28;20023;-68
2022/07/19 05:19:28;;;;;;;23.25;14.68;;;24.60;99.90;;;;;;5113504;28;20157;-69
2022/07/19 05:21:54;;;;;;;22.95;14.90;;;24.50;99.90;;;;;;5113606;28;20035;-70
2022/07/19 05:24:19;;;;;;;21.73;15.02;;;25.10;99.90;;;;;;5112870;28;20388;-69
2022/07/19 05:26:45;;;;;;;22.60;13.52;;;24.60;99.90;;;;;;5113434;28;20028;-70
2022/07/19 05:29:11;;;;;;;20.08;13.05;;;24.20;99.90;;;;;;5113191;28;20106;-69
2022/07/19 05:31:37;;;;;;;21.52;13.48;;;24.30;99.90;;;;;;5113621;28;20081;-69
2022/07/19 05:34:03;;;;;;;22.90;13.30;;;24.60;99.90;;;;;;5112998;28;20019;-70
2022/07/19 05:36:29;;;;;;;19.73;12.75;;;24.60;99.90;;;;;;5113039;28;20058;-70
2022/07/19 05:38:55;;;;;;;20.90;12.30;;;24.60;99.90;;;;;;5113024;28;20028;-70
2022/07/19 05:41:22;;;;;;;16.70;11.77;;;25.00;99.90;;;;;;5113086;28;20044;-70
2022/07/19 05:43:48;;;;;;;20.80;12.52;;;25.00;99.90;;;;;;5112996;28;20051;-70
2022/07/19 05:46:14;;;;;;;20.38;13.40;;;25.10;99.90;;;;;;5112963;28;20533;-69
2022/07/19 05:48:40;;;;;;;24.08;13.57;;;24.50;99.90;;;;;;5112995;28;20057;-70
2022/07/19 05:51:06;;;;;;;22.48;13.10;;;24.30;99.90;;;;;;5112681;28;20387;-70
2022/07/19 05:53:31;;;;;;;24.13;13.68;;;24.60;99.90;;;;;;5113106;28;20027;-69
2022/07/19 05:55:57;;;;;;;25.85;13.40;;;24.80;99.90;;;;;;5112898;28;20027;-71
2022/07/19 05:58:24;;;;;;;24.45;13.20;;;24.80;99.90;;;;;;5112705;28;20034;-70
2022/07/19 06:03:34;;;;;;;22.20;12.80;;;25.00;99.90;;;;;;5113105;28;20042;-72
2022/07/19 06:06:00;;;;;;;18.80;12.25;;;25.00;99.90;;;;;;5094494;28;20385;-71
2022/07/19 06:08:25;;;;;;;21.20;12.10;;;25.10;99.90;;;;;;5112941;28;20080;-69
2022/07/19 06:10:51;;;;;;;18.58;11.65;;;25.00;99.90;;;;;;5112516;28;20106;-70
2022/07/19 06:13:17;;;;;;;18.35;11.38;;;25.20;99.90;;;;;;5112376;28;20454;-71
2022/07/19 06:15:42;;;;;;;16.10;9.93;;;25.20;99.90;;;;;;5112675;28;20019;-69
2022/07/19 06:18:08;;;;;;;19.05;11.13;;;25.20;99.90;;;;;;5112489;28;20531;-70
2022/07/19 06:20:34;;;;;;;20.30;10.77;;;25.20;99.90;;;;;;5112617;28;20049;-70
2022/07/19 06:23:00;;;;;;;19.52;10.60;;;25.10;99.90;;;;;;5112440;28;20532;-70
2022/07/19 06:25:26;;;;;;;19.05;10.48;;;25.00;99.90;;;;;;5112420;28;20024;-70
2022/07/19 06:27:51;;;;;;;19.90;10.57;;;25.20;99.90;;;;;;5110541;28;20055;-69
2022/07/19 06:30:17;;;;;;;20.88;11.40;;;25.00;99.90;;;;;;5086590;28;20062;-70
2022/07/19 06:32:43;;;;;;;23.50;12.65;;;24.70;99.90;;;;;;5091784;28;20063;-70
2022/07/19 06:35:09;;;;;;;20.15;12.07;;;24.80;99.90;;;;;;5093796;28;20024;-70
2022/07/19 06:37:34;;;;;;;25.20;13.95;;;25.00;99.90;;;;;;5095697;28;20052;-70
2022/07/19 06:40:00;;;;;;;24.85;15.75;;;25.30;99.90;;;;;;5096392;28;20020;-70
2022/07/19 06:42:26;;;;;;;24.27;16.27;;;26.80;99.90;;;;;;5095955;28;20373;-71
2022/07/19 06:44:52;;;;;;;24.67;17.75;;;26.20;99.90;;;;;;5096044;28;20362;-69
2022/07/19 06:47:17;;;;;;;28.13;20.35;;;25.50;99.90;;;;;;5096108;28;20370;-70
2022/07/19 06:49:43;;;;;;;33.88;22.20;;;25.00;99.90;;;;;;5095947;28;20496;-69
2022/07/19 06:52:09;;;;;;;25.50;19.35;;;24.80;99.90;;;;;;5096020;28;20028;-70
2022/07/19 06:54:34;;;;;;;37.25;20.55;;;24.60;99.90;;;;;;5095839;28;20052;-70
2022/07/19 06:57:01;;;;;;;28.80;19.05;;;24.60;99.90;;;;;;5077804;28;20028;-70
2022/07/19 06:59:26;;;;;;;33.78;19.42;;;24.80;99.90;;;;;;5095351;28;20024;-69
2022/07/19 07:01:53;;;;;;;28.45;19.83;;;24.90;99.90;;;;;;5095734;28;20036;-69
2022/07/19 07:04:19;;;;;;;33.72;22.85;;;24.80;99.90;;;;;;5095592;28;20024;-69
2022/07/19 07:06:45;;;;;;;37.20;23.30;;;24.60;99.90;;;;;;5095811;28;20028;-69
2022/07/19 07:09:10;;;;;;;33.92;21.65;;;24.70;99.90;;;;;;5095728;28;20028;-69
2022/07/19 07:11:36;;;;;;;38.17;23.85;;;24.80;99.90;;;;;;5095519;28;20032;-69
2022/07/19 07:14:02;;;;;;;30.67;22.17;;;24.60;99.90;;;;;;5095189;28;20065;-69
2022/07/19 07:16:28;;;;;;;32.67;22.33;;;24.90;99.90;;;;;;5095762;28;20032;-69
2022/07/19 07:18:53;;;;;;;32.45;20.10;;;24.90;99.90;;;;;;5095378;28;20052;-69
2022/07/19 07:21:19;;;;;;;30.80;19.55;;;24.80;99.90;;;;;;5095367;28;20042;-70
2022/07/19 07:23:45;;;;;;;30.75;19.35;;;24.80;99.90;;;;;;5095119;28;20024;-69
2022/07/19 07:26:11;;;;;;;29.08;19.38;;;24.80;99.90;;;;;;5095112;28;20036;-70
2022/07/19 07:28:37;;;;;;;31.15;19.48;;;24.70;99.90;;;;;;5095120;28;20512;-69
2022/07/19 07:31:03;;;;;;;30.80;19.00;;;24.80;99.90;;;;;;5095103;28;20024;-69
2022/07/19 07:33:28;;;;;;;30.92;20.45;;;25.00;99.90;;;;;;5095072;28;20084;-69
2022/07/19 07:35:54;;;;;;;34.50;21.13;;;24.80;99.90;;;;;;5101719;28;20070;-69
2022/07/19 07:38:20;;;;;;;36.83;21.05;;;24.70;99.90;;;;;;5115026;28;20019;-70
2022/07/19 07:40:46;;;;;;;31.88;20.73;;;24.50;99.90;;;;;;5097052;28;20027;-70
2022/07/19 07:43:12;;;;;;;33.40;20.48;;;24.40;99.90;;;;;;5115645;28;20042;-70
2022/07/19 07:45:37;;;;;;;29.67;19.98;;;24.80;99.90;;;;;;5096849;28;20024;-69
2022/07/19 07:48:03;;;;;;;32.38;20.25;;;24.80;99.90;;;;;;5115242;28;20361;-69
2022/07/19 07:50:29;;;;;;;33.95;21.35;;;24.70;99.90;;;;;;5115205;28;20084;-69
2022/07/19 07:52:55;;;;;;;31.05;20.02;;;24.80;99.90;;;;;;5114949;28;20032;-70
2022/07/19 07:55:20;;;;;;;29.17;19.83;;;24.80;99.90;;;;;;5115255;28;20022;-69
2022/07/19 07:57:46;;;;;;;30.35;19.90;;;25.00;99.90;;;;;;5115175;28;20032;-69
2022/07/19 08:00:13;;;;;;;31.65;19.20;;;24.90;99.90;;;;;;5114938;28;20031;-69
2022/07/19 08:02:44;;;;;;;30.48;20.35;;;25.00;99.90;;;;;;5096655;28;20024;-69
2022/07/19 08:05:10;;;;;;;30.30;19.15;;;24.80;99.90;;;;;;5115107;28;20528;-70
2022/07/19 08:07:37;;;;;;;29.02;18.48;;;24.90;99.90;;;;;;5114799;28;20381;-69
2022/07/19 08:10:06;;;;;;;32.10;18.83;;;25.10;99.90;;;;;;5115310;28;20019;-69
2022/07/19 08:12:32;;;;;;;28.50;17.90;;;25.10;99.90;;;;;;5114503;28;20072;-70
2022/07/19 08:14:58;;;;;;;31.35;22.33;;;24.90;99.90;;;;;;5114690;28;20031;-69
2022/07/19 08:17:24;;;;;;;40.65;29.05;;;25.00;99.90;;;;;;5114730;28;20084;-69
2022/07/19 08:19:50;;;;;;;38.78;27.92;;;24.50;99.90;;;;;;5115327;28;20012;-70
2022/07/19 08:22:16;;;;;;;37.72;25.85;;;24.70;99.90;;;;;;5114327;28;20036;-70
2022/07/19 08:24:43;;;;;;;41.83;32.80;;;24.70;99.90;;;;;;5114024;28;20396;-69
2022/07/19 08:27:08;;;;;;;43.85;35.13;;;24.80;99.90;;;;;;5114386;28;20031;-69
2022/07/19 08:29:34;;;;;;;41.33;32.22;;;25.00;99.90;;;;;;5114771;28;20020;-69
2022/07/19 08:32:00;;;;;;;43.08;32.90;;;25.10;99.90;;;;;;5114486;28;20024;-69
2022/07/19 08:34:25;;;;;;;41.42;31.38;;;25.30;99.90;;;;;;5114128;28;20031;-69
2022/07/19 08:36:51;;;;;;;39.33;34.03;;;25.30;99.90;;;;;;5114457;28;20048;-69
2022/07/19 08:39:17;;;;;;;47.45;36.42;;;25.20;99.90;;;;;;5073842;28;20099;-69
2022/07/19 08:41:46;;;;;;;50.50;40.80;;;25.20;99.90;;;;;;5073111;28;20440;-69
2022/07/19 08:44:13;;;;;;;48.80;38.17;;;25.20;99.90;;;;;;5073410;28;20047;-70
2022/07/19 08:46:42;;;;;;;56.50;45.60;;;25.20;99.90;;;;;;5073694;28;20016;-70
2022/07/19 08:49:10;;;;;;;58.45;47.30;;;25.10;99.90;;;;;;5073226;28;20500;-70
2022/07/19 08:51:36;;;;;;;56.03;46.33;;;25.20;99.90;;;;;;5075871;28;20016;-70
2022/07/19 08:54:03;;;;;;;68.45;55.38;;;25.40;99.90;;;;;;5081580;28;20039;-69
2022/07/19 08:59:13;;;;;;;69.25;58.63;;;25.40;99.90;;;;;;5081546;28;20044;-69
2022/07/19 09:01:39;;;;;;;67.32;57.47;;;25.50;99.90;;;;;;5091346;28;20028;-69
2022/07/19 09:04:19;;;;;;;76.43;62.85;;;25.70;99.90;;;;;;5092766;28;20036;-69
2022/07/19 09:06:51;;;;;;;69.28;57.97;;;25.60;99.90;;;;;;5091245;28;20043;-69
2022/07/19 09:09:19;;;;;;;70.43;60.40;;;25.90;99.90;;;;;;5077880;28;20096;-70
2022/07/19 09:11:48;;;;;;;69.63;60.47;;;26.60;99.90;;;;;;5078027;28;20044;-70
2022/07/19 09:14:16;;;;;;;68.85;59.47;;;27.40;99.90;;;;;;5077589;28;20055;-69
2022/07/19 09:16:53;;;;;;;71.28;58.15;;;27.60;99.90;;;;;;5073766;28;20039;-71
2022/07/19 09:19:20;;;;;;;65.28;57.20;;;27.20;99.90;;;;;;5085945;28;20019;-71
2022/07/19 09:22:06;;;;;;;66.25;55.58;;;27.60;99.90;;;;;;5092539;28;20046;-72
2022/07/19 09:24:59;;;;;;;71.30;56.83;;;29.10;99.90;;;;;;5091400;28;20031;-71
2022/07/19 09:27:29;;;;;;;70.38;56.13;;;28.50;99.90;;;;;;5086518;28;20036;-70
2022/07/19 09:29:56;;;;;;;74.55;61.97;;;29.30;99.90;;;;;;5091982;28;20024;-71
2022/07/19 09:32:25;;;;;;;67.00;57.10;;;27.80;99.90;;;;;;5092423;28;20048;-70
2022/07/19 09:35:01;;;;;;;66.63;56.33;;;28.00;99.90;;;;;;5092389;28;20028;-71
2022/07/19 09:37:32;;;;;;;67.63;58.20;;;28.30;99.90;;;;;;5092141;28;20047;-69
2022/07/19 09:40:07;;;;;;;74.20;62.45;;;27.70;99.90;;;;;;5091954;28;20027;-69
2022/07/19 09:42:41;;;;;;;73.55;64.15;;;27.80;99.90;;;;;;5081305;28;20471;-69
2022/07/19 09:45:10;;;;;;;72.18;59.42;;;28.10;99.90;;;;;;5092679;28;20028;-69
2022/07/19 09:47:40;;;;;;;66.00;57.05;;;27.60;99.90;;;;;;5092437;28;20024;-69
2022/07/19 09:50:09;;;;;;;77.82;59.78;;;27.60;99.90;;;;;;5092368;28;20020;-69
2022/07/19 09:52:35;;;;;;;76.07;65.15;;;27.00;99.90;;;;;;5092576;28;20503;-69
2022/07/19 09:55:06;;;;;;;77.13;65.07;;;27.20;99.90;;;;;;5091742;28;20018;-70
2022/07/19 09:57:35;;;;;;;73.65;63.03;;;26.70;99.90;;;;;;5091997;28;20035;-69
2022/07/19 10:00:05;;;;;;;80.80;69.45;;;27.10;99.90;;;;;;5092323;28;20028;-72
2022/07/19 10:02:35;;;;;;;84.03;72.50;;;26.70;99.90;;;;;;5092532;28;20092;-71
2022/07/19 10:05:05;;;;;;;75.95;66.65;;;26.70;99.90;;;;;;5092298;28;20020;-71
2022/07/19 10:07:32;;;;;;;103.88;68.68;;;28.10;99.90;;;;;;5091999;28;20039;-71
2022/07/19 10:10:02;;;;;;;74.03;64.15;;;28.00;99.90;;;;;;5092295;28;20366;-71
2022/07/19 10:12:28;;;;;;;64.93;52.58;;;28.10;99.90;;;;;;5092189;28;20069;-70
2022/07/19 10:14:55;;;;;;;65.35;55.53;;;28.50;99.90;;;;;;5092140;28;20028;-70
2022/07/19 10:17:39;;;;;;;71.40;61.67;;;28.50;99.90;;;;;;5092440;28;20029;-71
2022/07/19 10:20:08;;;;;;;;;;;29.30;99.90;;;;;;5092613;28;20080;-72
2022/07/19 10:22:38;;;;;;;60.83;50.70;;;29.40;99.90;;;;;;5091933;28;20010;-71
2022/07/19 10:25:04;;;;;;;40.45;34.35;;;29.50;99.90;;;;;;5092529;28;20043;-71
2022/07/19 10:27:29;;;;;;;50.05;43.20;;;30.10;99.20;;;;;;5092219;28;20020;-70
2022/07/19 10:29:58;;;;;;;21.80;14.70;;;29.40;99.90;;;;;;5092320;28;20058;-70
2022/07/19 10:32:31;;;;;;;20.02;13.25;;;29.60;99.20;;;;;;5092450;28;20047;-71
2022/07/19 10:35:27;;;;;;;15.32;10.07;;;29.90;98.40;;;;;;5092115;28;20020;-71
2022/07/19 10:38:09;;;;;;;30.35;21.98;;;30.50;97.40;;;;;;5084492;28;20048;-70
2022/07/19 10:40:42;;;;;;;19.02;14.30;;;30.10;97.90;;;;;;5091980;28;20071;-69
2022/07/19 10:43:12;;;;;;;20.35;14.50;;;29.50;98.20;;;;;;5092044;28;20028;-69
2022/07/19 10:45:41;;;;;;;12.85;10.20;;;29.50;98.20;;;;;;5092231;28;20023;-69
2022/07/19 10:48:11;;;;;;;18.58;12.73;;;29.90;96.70;;;;;;5091999;28;20024;-69
2022/07/19 10:50:51;;;;;;;14.70;8.82;;;28.80;98.20;;;;;;5092029;28;20055;-69
2022/07/19 10:53:42;;;;;;;14.45;10.35;;;29.10;97.80;;;;;;5092210;28;20392;-69
2022/07/19 10:56:29;;;;;;;13.85;7.15;;;29.20;97.50;;;;;;5092037;28;20427;-69
2022/07/19 10:58:56;;;;;;;11.80;6.00;;;29.40;97.20;;;;;;5092050;28;20119;-69
2022/07/19 11:01:24;;;;;;;9.30;6.25;;;29.60;96.60;;;;;;5091860;28;20039;-69
2022/07/19 11:03:51;;;;;;;10.93;6.80;;;29.40;96.90;;;;;;5091785;28;20436;-69
2022/07/19 11:06:26;;;;;;;11.73;6.72;;;28.90;97.00;;;;;;5091683;28;20028;-69
2022/07/19 11:08:58;;;;;;;10.57;5.93;;;28.80;97.50;;;;;;5092001;28;20423;-69
2022/07/19 11:11:26;;;;;;;11.93;5.73;;;29.80;96.50;;;;;;5091781;28;20085;-70
2022/07/19 11:14:00;;;;;;;11.38;5.85;;;30.40;95.40;;;;;;5091707;28;20024;-69
2022/07/19 11:16:27;;;;;;;11.52;5.50;;;30.70;94.80;;;;;;5091452;28;20545;-70
2022/07/19 11:19:06;;;;;;;7.88;4.90;;;31.00;94.60;;;;;;5092122;28;20452;-69
2022/07/19 11:21:34;;;;;;;10.10;5.50;;;30.40;94.30;;;;;;5093112;28;20497;-70
2022/07/19 11:24:01;;;;;;;10.70;5.32;;;30.80;94.30;;;;;;5095426;28;20020;-70
2022/07/19 11:26:37;;;;;;;9.40;5.55;;;30.60;94.30;;;;;;5095384;28;20111;-69
2022/07/19 11:29:03;;;;;;;10.38;5.60;;;30.30;93.90;;;;;;5095462;28;20017;-69
2022/07/19 11:31:29;;;;;;;8.45;5.13;;;30.30;94.00;;;;;;5095162;28;20036;-69
2022/07/19 11:33:56;;;;;;;9.43;5.75;;;30.60;93.30;;;;;;5095273;28;20052;-69
2022/07/19 11:36:22;;;;;;;9.68;4.90;;;30.00;93.70;;;;;;5104832;28;20055;-69
2022/07/19 11:38:50;;;;;;;13.32;5.32;;;30.60;93.40;;;;;;5115760;28;20042;-68
2022/07/19 11:41:31;;;;;;;9.18;5.40;;;31.70;91.70;;;;;;5115536;28;20395;-68
2022/07/19 11:44:05;;;;;;;9.35;5.13;;;30.90;92.80;;;;;;5115360;28;20038;-68
2022/07/19 11:46:40;;;;;;;8.20;4.75;;;30.90;93.00;;;;;;5115337;28;20055;-69
2022/07/19 11:49:08;;;;;;;9.77;5.65;;;31.50;92.70;;;;;;5114841;28;20484;-68
2022/07/19 11:51:34;;;;;;;7.75;5.05;;;31.50;92.20;;;;;;5115161;28;20039;-68
2022/07/19 11:54:01;;;;;;;11.55;5.43;;;31.30;92.80;;;;;;5115496;28;20027;-68
2022/07/19 11:56:30;;;;;;;12.07;5.35;;;30.30;93.70;;;;;;5115180;28;20039;-68
2022/07/19 11:58:58;;;;;;;11.77;5.15;;;30.40;94.00;;;;;;5115224;28;20012;-68
2022/07/19 12:01:35;;;;;;;10.90;5.72;;;30.50;93.50;;;;;;5115155;28;20164;-68
2022/07/19 12:04:04;;;;;;;11.90;5.50;;;30.30;93.90;;;;;;5114575;28;20023;-68
2022/07/19 12:06:39;;;;;;;10.07;5.38;;;31.10;93.80;;;;;;5114997;28;20165;-68
2022/07/19 12:09:26;;;;;;;13.50;5.68;;;30.90;94.10;;;;;;5115109;28;20112;-68
2022/07/19 12:11:56;;;;;;;12.20;5.60;;;30.70;93.90;;;;;;5114884;28;20016;-68
2022/07/19 12:14:24;;;;;;;13.73;5.88;;;30.70;94.80;;;;;;5114761;28;20031;-68
2022/07/19 12:17:14;;;;;;;9.02;5.22;;;30.20;94.80;;;;;;5114859;28;20343;-68
2022/07/19 12:19:42;;;;;;;9.70;4.88;;;30.00;95.10;;;;;;5114452;28;20071;-68
2022/07/19 12:22:25;;;;;;;12.30;5.32;;;29.90;95.10;;;;;;5115010;28;20108;-68
2022/07/19 12:24:51;;;;;;;12.13;5.35;;;29.90;95.30;;;;;;5114935;28;20023;-68
2022/07/19 12:27:17;;;;;;;10.70;5.22;;;30.30;94.80;;;;;;5114725;28;20109;-67
2022/07/19 12:29:42;;;;;;;10.75;5.47;;;30.40;94.60;;;;;;5114406;28;20103;-67
2022/07/19 12:32:10;;;;;;;10.05;5.10;;;30.00;95.00;;;;;;5113573;28;20020;-67
2022/07/19 12:34:46;;;;;;;11.93;5.13;;;30.40;94.90;;;;;;5114290;28;20440;-68
2022/07/19 12:37:30;;;;;;;13.10;5.28;;;30.10;95.40;;;;;;5114082;28;20052;-67